Anderson Grade Atmospheric Data: 04/18/2019 Summary  Detailed Graphs  Station List

  Temperature     Wind Precipitation Visibility
Timestamp Air Wet
Bulb
Dew-
point
24-hr
Max
24-hr
Min
Relative
Humidity
Atmospheric
Pressure
Avg
Speed
Avg
Dir
Spot
Speed
Spot
Dir
Max
Speed
Max
Dir
  Rate Situation Start End 1 hr 3 hr 6 hr 12 hr 24 hr   Situation
Date Time °F °F °F °F °F % in Hg mph ° mph ° mph ° Y/N in/hr text Date Time Date Time in in in in in mi text
04/18/2019 12:01 AM 51.98 45.32 38.30 73.22 39.20 59.0 Not Reported 3.13 N 1.12 NW 5.14 N No 0.000 No Precipitation 03/28/2019 09:09 AM 03/28/2019 09:14 AM 0.000 0.000 0.000 0.000 0.000 Not Reported Not Reported
04/18/2019 12:16 AM 52.34 45.32 37.94 73.22 39.20 57.0 Not Reported 1.34 N 0.67 N 4.70 NW No 0.000 No Precipitation 03/28/2019 09:09 AM 03/28/2019 09:14 AM 0.000 0.000 0.000 0.000 0.000 Not Reported Not Reported
04/18/2019 12:31 AM 53.78 46.04 37.22 73.22 39.20 54.0 Not Reported 3.58 N 3.13 N 6.04 N No 0.000 No Precipitation 03/28/2019 09:09 AM 03/28/2019 09:14 AM 0.000 0.000 0.000 0.000 0.000 Not Reported Not Reported
04/18/2019 12:46 AM 52.16 45.14 37.40 73.22 39.20 57.0 Not Reported 3.80 N 4.03 N 4.92 N No 0.000 No Precipitation 03/28/2019 09:09 AM 03/28/2019 09:14 AM 0.000 0.000 0.000 0.000 0.000 Not Reported Not Reported
04/18/2019 01:01 AM 51.44 44.78 37.94 73.22 39.20 59.0 Not Reported 2.01 N 3.13 N 3.80 N No 0.000 No Precipitation 03/28/2019 09:09 AM 03/28/2019 09:14 AM 0.000 0.000 0.000 0.000 0.000 Not Reported Not Reported
04/18/2019 01:16 AM 54.14 46.04 37.58 73.22 39.20 53.0 Not Reported 4.03 NW 4.70 NW 3.36 N No 0.000 No Precipitation 03/28/2019 09:09 AM 03/28/2019 09:14 AM 0.000 0.000 0.000 0.000 0.000 Not Reported Not Reported
04/18/2019 01:31 AM 52.34 45.14 37.94 73.22 39.20 57.0 Not Reported 2.68 N 4.47 N 4.92 NW No 0.000 No Precipitation 03/28/2019 09:09 AM 03/28/2019 09:14 AM 0.000 0.000 0.000 0.000 0.000 Not Reported Not Reported
04/18/2019 01:46 AM 51.98 45.32 38.48 73.22 39.20 59.0 Not Reported 1.12 N 3.58 N 5.59 N No 0.000 No Precipitation 03/28/2019 09:09 AM 03/28/2019 09:14 AM 0.000 0.000 0.000 0.000 0.000 Not Reported Not Reported
04/18/2019 02:01 AM 50.90 44.96 38.48 73.22 39.20 62.0 Not Reported 4.25 NW 1.12 N 5.14 NW No 0.000 No Precipitation 03/28/2019 09:09 AM 03/28/2019 09:14 AM 0.000 0.000 0.000 0.000 0.000 Not Reported Not Reported
04/18/2019 02:16 AM 52.34 45.32 37.94 73.22 39.20 57.0 Not Reported 2.91 NW 4.25 NW 5.82 N No 0.000 No Precipitation 03/28/2019 09:09 AM 03/28/2019 09:14 AM 0.000 0.000 0.000 0.000 0.000 Not Reported Not Reported
04/18/2019 02:31 AM 52.16 45.32 38.12 73.22 39.20 58.0 Not Reported 0.45 N 0.00 N 3.80 NW No 0.000 No Precipitation 03/28/2019 09:09 AM 03/28/2019 09:14 AM 0.000 0.000 0.000 0.000 0.000 Not Reported Not Reported
04/18/2019 02:46 AM 52.70 45.68 38.12 73.22 39.20 58.0 Not Reported 0.67 W 0.00 SW 1.57 NW No 0.000 No Precipitation 03/28/2019 09:09 AM 03/28/2019 09:14 AM 0.000 0.000 0.000 0.000 0.000 Not Reported Not Reported
04/18/2019 03:01 AM 51.98 45.14 37.94 73.22 39.20 58.0 Not Reported 0.00 N 0.00 N 0.00 SE No 0.000 No Precipitation 03/28/2019 09:09 AM 03/28/2019 09:14 AM 0.000 0.000 0.000 0.000 0.000 Not Reported Not Reported
04/18/2019 03:16 AM 51.98 45.32 37.76 73.22 39.20 58.0 Not Reported 0.89 N 0.45 N 1.57 N No 0.000 No Precipitation 03/28/2019 09:09 AM 03/28/2019 09:14 AM 0.000 0.000 0.000 0.000 0.000 Not Reported Not Reported
04/18/2019 03:31 AM 48.74 43.34 37.40 73.22 39.20 64.0 Not Reported 1.12 N 2.01 NW 2.46 NW No 0.000 No Precipitation 03/28/2019 09:09 AM 03/28/2019 09:14 AM 0.000 0.000 0.000 0.000 0.000 Not Reported Not Reported
04/18/2019 03:46 AM 47.48 43.16 38.30 73.22 39.20 70.0 Not Reported 1.12 N 0.89 N 2.01 NW No 0.000 No Precipitation 03/28/2019 09:09 AM 03/28/2019 09:14 AM 0.000 0.000 0.000 0.000 0.000 Not Reported Not Reported
04/18/2019 04:01 AM 47.48 43.34 38.66 73.22 39.20 71.0 Not Reported 1.79 N 1.12 N 2.91 NW No 0.000 No Precipitation 03/28/2019 09:09 AM 03/28/2019 09:14 AM 0.000 0.000 0.000 0.000 0.000 Not Reported Not Reported
04/18/2019 04:16 AM 47.30 43.16 38.66 73.22 39.20 72.0 Not Reported 1.57 N 0.89 NE 3.80 N No 0.000 No Precipitation 03/28/2019 09:09 AM 03/28/2019 09:14 AM 0.000 0.000 0.000 0.000 0.000 Not Reported Not Reported
04/18/2019 04:31 AM 45.68 42.26 38.30 73.22 39.20 74.0 Not Reported 1.79 N 1.12 N 2.24 N No 0.000 No Precipitation 03/28/2019 09:09 AM 03/28/2019 09:14 AM 0.000 0.000 0.000 0.000 0.000 Not Reported Not Reported
04/18/2019 04:46 AM 46.76 43.34 39.38 73.22 39.20 74.0 Not Reported 2.91 N 2.46 N 2.91 N No 0.000 No Precipitation 03/28/2019 09:09 AM 03/28/2019 09:14 AM 0.000 0.000 0.000 0.000 0.000 Not Reported Not Reported
04/18/2019 05:01 AM 46.58 42.80 38.66 73.22 39.20 73.0 Not Reported 2.46 NW 1.79 NW 4.03 N No 0.000 No Precipitation 03/28/2019 09:09 AM 03/28/2019 09:14 AM 0.000 0.000 0.000 0.000 0.000 Not Reported Not Reported
04/18/2019 05:16 AM 46.40 42.62 38.84 73.22 39.20 74.0 Not Reported 2.01 N 3.36 N 5.59 NW No 0.000 No Precipitation 03/28/2019 09:09 AM 03/28/2019 09:14 AM 0.000 0.000 0.000 0.000 0.000 Not Reported Not Reported
04/18/2019 05:31 AM 47.48 43.34 38.66 73.22 39.20 70.0 Not Reported 3.58 N 2.46 N 4.25 N No 0.000 No Precipitation 03/28/2019 09:09 AM 03/28/2019 09:14 AM 0.000 0.000 0.000 0.000 0.000 Not Reported Not Reported
04/18/2019 05:46 AM 46.04 42.62 38.84 73.22 39.20 75.0 Not Reported 2.46 N 3.80 NW 5.14 N No 0.000 No Precipitation 03/28/2019 09:09 AM 03/28/2019 09:14 AM 0.000 0.000 0.000 0.000 0.000 Not Reported Not Reported
04/18/2019 06:01 AM 45.50 42.44 39.02 73.22 39.20 77.0 Not Reported 2.46 N 2.46 NW 3.36 NW No 0.000 No Precipitation 03/28/2019 09:09 AM 03/28/2019 09:14 AM 0.000 0.000 0.000 0.000 0.000 Not Reported Not Reported
04/18/2019 06:16 AM 46.04 42.80 39.20 73.22 39.20 77.0 Not Reported 0.89 N 1.34 NE 3.13 NW No 0.000 No Precipitation 03/28/2019 09:09 AM 03/28/2019 09:14 AM 0.000 0.000 0.000 0.000 0.000 Not Reported Not Reported
04/18/2019 06:31 AM 46.04 42.62 39.02 73.22 39.20 76.0 Not Reported 2.46 NW 2.68 NW 2.68 N No 0.000 No Precipitation 03/28/2019 09:09 AM 03/28/2019 09:14 AM 0.000 0.000 0.000 0.000 0.000 Not Reported Not Reported
04/18/2019 06:46 AM 47.12 43.16 39.02 73.22 39.20 73.0 Not Reported 2.46 NW 3.36 NW 4.03 NW No 0.000 No Precipitation 03/28/2019 09:09 AM 03/28/2019 09:14 AM 0.000 0.000 0.000 0.000 0.000 Not Reported Not Reported
04/18/2019 07:01 AM 44.96 42.08 38.66 73.22 39.20 78.0 Not Reported 2.01 NW 2.46 NW 3.36 NW No 0.000 No Precipitation 03/28/2019 09:09 AM 03/28/2019 09:14 AM 0.000 0.000 0.000 0.000 0.000 Not Reported Not Reported
04/18/2019 07:16 AM 45.14 42.08 38.84 73.22 39.20 78.0 Not Reported 0.89 N 1.12 N 2.91 NW No 0.000 No Precipitation 03/28/2019 09:09 AM 03/28/2019 09:14 AM 0.000 0.000 0.000 0.000 0.000 Not Reported Not Reported
04/18/2019 07:31 AM 44.78 41.90 38.84 73.22 39.20 79.0 Not Reported 0.89 N 0.89 N 1.79 N No 0.000 No Precipitation 03/28/2019 09:09 AM 03/28/2019 09:14 AM 0.000 0.000 0.000 0.000 0.000 Not Reported Not Reported
04/18/2019 07:47 AM 44.78 42.08 39.20 73.22 39.20 80.0 Not Reported 1.57 N 0.67 N 1.57 NW No 0.000 No Precipitation 03/28/2019 09:09 AM 03/28/2019 09:14 AM 0.000 0.000 0.000 0.000 0.000 Not Reported Not Reported
04/18/2019 08:02 AM 44.42 42.08 39.20 73.22 39.20 81.0 Not Reported 0.45 N 0.00 N 1.79 N No 0.000 No Precipitation 03/28/2019 09:09 AM 03/28/2019 09:14 AM 0.000 0.000 0.000 0.000 0.000 Not Reported Not Reported
04/18/2019 08:17 AM 45.32 42.44 39.02 73.22 39.20 78.0 Not Reported 0.67 N 1.12 N 1.57 NW No 0.000 No Precipitation 03/28/2019 09:09 AM 03/28/2019 09:14 AM 0.000 0.000 0.000 0.000 0.000 Not Reported Not Reported
04/18/2019 08:32 AM 45.32 42.26 39.20 73.22 39.20 79.0 Not Reported 0.45 S 1.57 S 2.01 S No 0.000 No Precipitation 03/28/2019 09:09 AM 03/28/2019 09:14 AM 0.000 0.000 0.000 0.000 0.000 Not Reported Not Reported
04/18/2019 08:47 AM 45.68 42.80 39.74 73.22 39.20 79.0 Not Reported 0.00 N 0.89 N 1.57 S No 0.000 No Precipitation 03/28/2019 09:09 AM 03/28/2019 09:14 AM 0.000 0.000 0.000 0.000 0.000 Not Reported Not Reported
04/18/2019 09:02 AM 46.76 43.88 40.10 73.22 39.20 76.0 Not Reported 1.12 NE 0.45 E 1.79 N No 0.000 No Precipitation 03/28/2019 09:09 AM 03/28/2019 09:14 AM 0.000 0.000 0.000 0.000 0.000 Not Reported Not Reported
04/18/2019 09:17 AM 49.28 45.32 40.28 73.22 39.20 70.0 Not Reported 2.24 SE 1.79 E 2.46 SE No 0.000 No Precipitation 03/28/2019 09:09 AM 03/28/2019 09:14 AM 0.000 0.000 0.000 0.000 0.000 Not Reported Not Reported
04/18/2019 09:32 AM 52.88 46.94 41.18 73.22 39.20 63.0 Not Reported 0.67 SE 0.89 E 1.79 E No 0.000 No Precipitation 03/28/2019 09:09 AM 03/28/2019 09:14 AM 0.000 0.000 0.000 0.000 0.000 Not Reported Not Reported
04/18/2019 09:47 AM 51.62 45.86 40.46 73.22 39.20 64.0 Not Reported 3.36 N 2.46 NW 3.80 N No 0.000 No Precipitation 03/28/2019 09:09 AM 03/28/2019 09:14 AM 0.000 0.000 0.000 0.000 0.000 Not Reported Not Reported
04/18/2019 10:02 AM 54.86 48.20 42.62 73.22 39.20 61.0 Not Reported 1.34 SE 3.13 S 3.36 N No 0.000 No Precipitation 03/28/2019 09:09 AM 03/28/2019 09:14 AM 0.000 0.000 0.000 0.000 0.000 Not Reported Not Reported
04/18/2019 10:17 AM 53.60 48.38 43.34 73.22 39.20 67.0 Not Reported 3.80 SE 3.80 S 4.47 S No 0.000 No Precipitation 03/28/2019 09:09 AM 03/28/2019 09:14 AM 0.000 0.000 0.000 0.000 0.000 Not Reported Not Reported
04/18/2019 10:32 AM 55.40 49.10 42.80 73.22 39.20 62.0 Not Reported 2.68 SE 1.34 SE 4.25 SE No 0.000 No Precipitation 03/28/2019 09:09 AM 03/28/2019 09:14 AM 0.000 0.000 0.000 0.000 0.000 Not Reported Not Reported
04/18/2019 10:47 AM 57.74 49.64 42.44 73.22 39.20 54.0 Not Reported 0.45 W 2.24 NW 3.36 E No 0.000 No Precipitation 03/28/2019 09:09 AM 03/28/2019 09:14 AM 0.000 0.000 0.000 0.000 0.000 Not Reported Not Reported
04/18/2019 11:02 AM 57.56 49.64 41.90 73.22 39.20 53.0 Not Reported 2.24 N 1.34 NE 4.25 NW No 0.000 No Precipitation 03/28/2019 09:09 AM 03/28/2019 09:14 AM 0.000 0.000 0.000 0.000 0.000 Not Reported Not Reported
04/18/2019 11:17 AM 59.36 51.44 44.42 73.22 39.20 57.0 Not Reported 0.89 SE 0.22 N 3.80 NW No 0.000 No Precipitation 03/28/2019 09:09 AM 03/28/2019 09:14 AM 0.000 0.000 0.000 0.000 0.000 Not Reported Not Reported
04/18/2019 11:32 AM 59.36 51.98 45.32 73.22 39.20 57.0 Not Reported 2.91 S 3.80 S 5.14 SE No 0.000 No Precipitation 03/28/2019 09:09 AM 03/28/2019 09:14 AM 0.000 0.000 0.000 0.000 0.000 Not Reported Not Reported
04/18/2019 11:47 AM 60.98 53.60 47.30 73.22 39.20 59.0 Not Reported 4.47 S 5.59 S 6.49 SE No 0.000 No Precipitation 03/28/2019 09:09 AM 03/28/2019 09:14 AM 0.000 0.000 0.000 0.000 0.000 Not Reported Not Reported
04/18/2019 12:02 PM 61.70 53.42 47.30 73.22 39.20 58.0 Not Reported 6.04 S 5.59 SE 8.05 S No 0.000 No Precipitation 03/28/2019 09:09 AM 03/28/2019 09:14 AM 0.000 0.000 0.000 0.000 0.000 Not Reported Not Reported
04/18/2019 12:17 PM 62.06 53.96 46.58 73.22 39.20 57.0 Not Reported 7.83 SE 6.71 S 8.05 S No 0.000 No Precipitation 03/28/2019 09:09 AM 03/28/2019 09:14 AM 0.000 0.000 0.000 0.000 0.000 Not Reported Not Reported
04/18/2019 12:32 PM 62.60 53.78 45.86 73.22 39.20 54.0 Not Reported 5.82 S 5.59 S 8.05 SE No 0.000 No Precipitation 03/28/2019 09:09 AM 03/28/2019 09:14 AM 0.000 0.000 0.000 0.000 0.000 Not Reported Not Reported
04/18/2019 12:47 PM 63.32 53.42 46.40 73.22 39.20 51.0 Not Reported 6.04 SE 4.03 S 7.38 S No 0.000 No Precipitation 03/28/2019 09:09 AM 03/28/2019 09:14 AM 0.000 0.000 0.000 0.000 0.000 Not Reported Not Reported
04/18/2019 01:02 PM 65.12 55.22 47.48 73.22 39.20 51.0 Not Reported 4.70 S 2.24 S 7.61 S No 0.000 No Precipitation 03/28/2019 09:09 AM 03/28/2019 09:14 AM 0.000 0.000 0.000 0.000 0.000 Not Reported Not Reported
04/18/2019 01:17 PM 65.30 55.22 46.40 73.22 39.20 51.0 Not Reported 2.46 S 4.25 E 5.37 S No 0.000 No Precipitation 03/28/2019 09:09 AM 03/28/2019 09:14 AM 0.000 0.000 0.000 0.000 0.000 Not Reported Not Reported
04/18/2019 01:32 PM 67.28 55.58 49.10 73.22 39.20 47.0 Not Reported 5.37 S 5.82 S 5.82 SE No 0.000 No Precipitation 03/28/2019 09:09 AM 03/28/2019 09:14 AM 0.000 0.000 0.000 0.000 0.000 Not Reported Not Reported
04/18/2019 01:47 PM 68.00 54.68 44.78 73.22 39.20 41.0 Not Reported 4.92 SE 2.01 S 6.49 S No 0.000 No Precipitation 03/28/2019 09:09 AM 03/28/2019 09:14 AM 0.000 0.000 0.000 0.000 0.000 Not Reported Not Reported
04/18/2019 02:02 PM 68.72 55.22 45.32 73.22 39.20 41.0 Not Reported 3.13 S 4.70 S 6.49 SE No 0.000 No Precipitation 03/28/2019 09:09 AM 03/28/2019 09:14 AM 0.000 0.000 0.000 0.000 0.000 Not Reported Not Reported
04/18/2019 02:16 PM 70.34 57.38 49.64 73.22 39.20 43.0 Not Reported 3.58 S 3.36 S 6.49 S No 0.000 No Precipitation 03/28/2019 09:09 AM 03/28/2019 09:14 AM 0.000 0.000 0.000 0.000 0.000 Not Reported Not Reported
04/18/2019 02:32 PM 70.52 57.02 45.68 73.22 39.20 43.0 Not Reported 2.24 SW 2.01 S 5.82 S No 0.000 No Precipitation 03/28/2019 09:09 AM 03/28/2019 09:14 AM 0.000 0.000 0.000 0.000 0.000 Not Reported Not Reported
04/18/2019 02:47 PM 71.24 56.66 43.34 73.22 39.20 38.0 Not Reported 4.25 S 4.25 SE 4.25 SW No 0.000 No Precipitation 03/28/2019 09:09 AM 03/28/2019 09:14 AM 0.000 0.000 0.000 0.000 0.000 Not Reported Not Reported
04/18/2019 03:02 PM 72.50 56.84 45.86 73.22 39.20 36.0 Not Reported 5.37 S 4.03 SE 6.04 S No 0.000 No Precipitation 03/28/2019 09:09 AM 03/28/2019 09:14 AM 0.000 0.000 0.000 0.000 0.000 Not Reported Not Reported
04/18/2019 03:17 PM 72.68 57.20 48.56 73.22 39.20 35.0 Not Reported 5.82 S 5.14 S 8.28 S No 0.000 No Precipitation 03/28/2019 09:09 AM 03/28/2019 09:14 AM 0.000 0.000 0.000 0.000 0.000 Not Reported Not Reported
04/18/2019 03:32 PM 73.94 57.92 43.52 73.22 39.20 36.0 Not Reported 6.04 S 4.70 S 5.82 S No 0.000 No Precipitation 03/28/2019 09:09 AM 03/28/2019 09:14 AM 0.000 0.000 0.000 0.000 0.000 Not Reported Not Reported
04/18/2019 03:47 PM 74.12 57.92 47.48 73.22 39.20 35.0 Not Reported 4.70 S 2.68 S 6.93 S No 0.000 No Precipitation 03/28/2019 09:09 AM 03/28/2019 09:14 AM 0.000 0.000 0.000 0.000 0.000 Not Reported Not Reported
04/18/2019 04:02 PM 74.66 57.92 43.52 73.22 39.20 34.0 Not Reported 4.25 SE 0.89 S 7.38 S No 0.000 No Precipitation 03/28/2019 09:09 AM 03/28/2019 09:14 AM 0.000 0.000 0.000 0.000 0.000 Not Reported Not Reported
04/18/2019 04:17 PM 76.10 59.36 45.32 73.22 39.20 35.0 Not Reported 2.24 S 5.14 S 6.26 S No 0.000 No Precipitation 03/28/2019 09:09 AM 03/28/2019 09:14 AM 0.000 0.000 0.000 0.000 0.000 Not Reported Not Reported
04/18/2019 04:32 PM 76.10 58.10 42.98 73.22 39.20 32.0 Not Reported 2.46 S 4.47 SW 9.40 S No 0.000 No Precipitation 03/28/2019 09:09 AM 03/28/2019 09:14 AM 0.000 0.000 0.000 0.000 0.000 Not Reported Not Reported
04/18/2019 04:47 PM 76.82 57.56 42.62 73.22 39.20 29.0 Not Reported 3.80 SW 4.70 S 7.83 S No 0.000 No Precipitation 03/28/2019 09:09 AM 03/28/2019 09:14 AM 0.000 0.000 0.000 0.000 0.000 Not Reported Not Reported
04/18/2019 05:02 PM 75.92 57.92 42.44 73.22 39.20 30.0 Not Reported 4.03 S 4.92 S 7.61 S No 0.000 No Precipitation 03/28/2019 09:09 AM 03/28/2019 09:14 AM 0.000 0.000 0.000 0.000 0.000 Not Reported Not Reported
04/18/2019 05:17 PM 76.64 57.56 43.34 73.22 39.20 28.0 Not Reported 5.59 S 4.70 SW 6.26 S No 0.000 No Precipitation 03/28/2019 09:09 AM 03/28/2019 09:14 AM 0.000 0.000 0.000 0.000 0.000 Not Reported Not Reported
04/18/2019 05:32 PM 77.54 58.10 42.44 73.22 39.20 27.0 Not Reported 1.79 S 6.04 SE 6.71 S No 0.000 No Precipitation 03/28/2019 09:09 AM 03/28/2019 09:14 AM 0.000 0.000 0.000 0.000 0.000 Not Reported Not Reported
04/18/2019 05:47 PM 78.08 57.20 39.92 73.22 39.20 25.0 Not Reported 3.36 S 1.79 S 6.71 SE No 0.000 No Precipitation 03/28/2019 09:09 AM 03/28/2019 09:14 AM 0.000 0.000 0.000 0.000 0.000 Not Reported Not Reported
04/18/2019 06:02 PM 79.16 58.82 42.08 79.34 43.88 27.0 Not Reported 3.36 S 2.91 S 5.59 S No 0.000 No Precipitation 03/28/2019 09:09 AM 03/28/2019 09:14 AM 0.000 0.000 0.000 0.000 0.000 Not Reported Not Reported
04/18/2019 06:16 PM 78.44 58.64 43.34 79.34 43.88 28.0 Not Reported 4.70 SE 1.12 SW 4.92 S No 0.000 No Precipitation 03/28/2019 09:09 AM 03/28/2019 09:14 AM 0.000 0.000 0.000 0.000 0.000 Not Reported Not Reported
04/18/2019 06:31 PM 78.26 58.64 42.98 79.34 43.88 28.0 Not Reported 1.57 SE 2.24 S 4.92 S No 0.000 No Precipitation 03/28/2019 09:09 AM 03/28/2019 09:14 AM 0.000 0.000 0.000 0.000 0.000 Not Reported Not Reported
04/18/2019 06:46 PM 77.54 58.28 42.80 79.34 43.88 29.0 Not Reported 4.70 S 3.80 S 3.58 S No 0.000 No Precipitation 03/28/2019 09:09 AM 03/28/2019 09:14 AM 0.000 0.000 0.000 0.000 0.000 Not Reported Not Reported
04/18/2019 07:01 PM 74.48 56.30 40.64 79.34 43.88 29.0 Not Reported 6.49 S 4.92 SW 7.61 S No 0.000 No Precipitation 03/28/2019 09:09 AM 03/28/2019 09:14 AM 0.000 0.000 0.000 0.000 0.000 Not Reported Not Reported
04/18/2019 07:16 PM 73.58 55.76 40.28 79.34 43.88 29.0 Not Reported 5.37 S 7.16 S 7.38 S No 0.000 No Precipitation 03/28/2019 09:09 AM 03/28/2019 09:14 AM 0.000 0.000 0.000 0.000 0.000 Not Reported Not Reported
04/18/2019 07:31 PM 73.22 55.76 40.46 79.34 43.88 30.0 Not Reported 4.70 S 3.58 S 6.93 S No 0.000 No Precipitation 03/28/2019 09:09 AM 03/28/2019 09:14 AM 0.000 0.000 0.000 0.000 0.000 Not Reported Not Reported
04/18/2019 07:46 PM 73.04 55.40 39.74 79.34 43.88 30.0 Not Reported 4.03 S 5.14 S 5.59 S No 0.000 No Precipitation 03/28/2019 09:09 AM 03/28/2019 09:14 AM 0.000 0.000 0.000 0.000 0.000 Not Reported Not Reported
04/18/2019 08:01 PM 72.86 55.04 39.02 79.34 43.88 29.0 Not Reported 4.92 S 5.59 S 6.49 S No 0.000 No Precipitation 03/28/2019 09:09 AM 03/28/2019 09:14 AM 0.000 0.000 0.000 0.000 0.000 Not Reported Not Reported
04/18/2019 08:16 PM 71.96 55.76 42.08 79.34 43.88 33.0 Not Reported 2.91 S 3.36 SW 6.49 S No 0.000 No Precipitation 03/28/2019 09:09 AM 03/28/2019 09:14 AM 0.000 0.000 0.000 0.000 0.000 Not Reported Not Reported
04/18/2019 08:31 PM 71.06 55.58 42.62 79.34 43.88 36.0 Not Reported 1.34 S 0.89 S 2.46 S No 0.000 No Precipitation 03/28/2019 09:09 AM 03/28/2019 09:14 AM 0.000 0.000 0.000 0.000 0.000 Not Reported Not Reported
04/18/2019 08:46 PM 70.70 55.58 42.80 79.34 43.88 36.0 Not Reported 1.34 S 1.34 S 1.79 S No 0.000 No Precipitation 03/28/2019 09:09 AM 03/28/2019 09:14 AM 0.000 0.000 0.000 0.000 0.000 Not Reported Not Reported
04/18/2019 09:01 PM 70.88 55.40 42.26 79.34 43.88 35.0 Not Reported 0.67 S 0.45 SE 2.24 S No 0.000 No Precipitation 03/28/2019 09:09 AM 03/28/2019 09:14 AM 0.000 0.000 0.000 0.000 0.000 Not Reported Not Reported
04/18/2019 09:16 PM 70.34 54.86 41.54 79.34 43.88 34.0 Not Reported 0.89 S 0.00 SE 1.57 S No 0.000 No Precipitation 03/28/2019 09:09 AM 03/28/2019 09:14 AM 0.000 0.000 0.000 0.000 0.000 Not Reported Not Reported
04/18/2019 09:31 PM 69.26 54.50 41.36 79.34 43.88 36.0 Not Reported 0.22 S 0.00 SE 0.89 SW No 0.000 No Precipitation 03/28/2019 09:09 AM 03/28/2019 09:14 AM 0.000 0.000 0.000 0.000 0.000 Not Reported Not Reported
04/18/2019 09:46 PM 67.64 53.96 41.90 79.34 43.88 38.0 Not Reported 1.79 NW 3.58 NW 0.67 S No 0.000 No Precipitation 03/28/2019 09:09 AM 03/28/2019 09:14 AM 0.000 0.000 0.000 0.000 0.000 Not Reported Not Reported
04/18/2019 10:01 PM 65.48 52.88 41.54 79.34 43.88 42.0 Not Reported 2.68 NW 4.47 NW 4.92 N No 0.000 No Precipitation 03/28/2019 09:09 AM 03/28/2019 09:14 AM 0.000 0.000 0.000 0.000 0.000 Not Reported Not Reported
04/18/2019 10:16 PM 63.68 52.70 42.80 79.34 43.88 47.0 Not Reported 2.46 NW 1.79 NW 5.59 NW No 0.000 No Precipitation 03/28/2019 09:09 AM 03/28/2019 09:14 AM 0.000 0.000 0.000 0.000 0.000 Not Reported Not Reported
04/18/2019 10:31 PM 65.12 52.70 41.72 79.34 43.88 42.0 Not Reported 2.91 N 2.46 N 5.14 NW No 0.000 No Precipitation 03/28/2019 09:09 AM 03/28/2019 09:14 AM 0.000 0.000 0.000 0.000 0.000 Not Reported Not Reported
04/18/2019 10:46 PM 65.12 52.70 41.90 79.34 43.88 43.0 Not Reported 2.91 N 1.79 N 5.59 N No 0.000 No Precipitation 03/28/2019 09:09 AM 03/28/2019 09:14 AM 0.000 0.000 0.000 0.000 0.000 Not Reported Not Reported
04/18/2019 11:01 PM 64.58 52.52 41.90 79.34 43.88 43.0 Not Reported 1.79 N 0.89 N 4.03 N No 0.000 No Precipitation 03/28/2019 09:09 AM 03/28/2019 09:14 AM 0.000 0.000 0.000 0.000 0.000 Not Reported Not Reported
04/18/2019 11:16 PM 64.04 52.34 41.90 79.34 43.88 44.0 Not Reported 0.22 NE 1.57 N 2.46 NW No 0.000 No Precipitation 03/28/2019 09:09 AM 03/28/2019 09:14 AM 0.000 0.000 0.000 0.000 0.000 Not Reported Not Reported
04/18/2019 11:31 PM 64.76 52.70 41.72 79.34 43.88 44.0 Not Reported 0.89 N 1.12 NW 1.12 N No 0.000 No Precipitation 03/28/2019 09:09 AM 03/28/2019 09:14 AM 0.000 0.000 0.000 0.000 0.000 Not Reported Not Reported
04/18/2019 11:46 PM 60.80 51.44 43.16 79.34 43.88 51.0 Not Reported 1.12 N 1.79 N 2.46 N No 0.000 No Precipitation 03/28/2019 09:09 AM 03/28/2019 09:14 AM 0.000 0.000 0.000 0.000 0.000 Not Reported Not Reported